createdAt,value
2023-03-29T00:04:19.740Z,84.80
2023-03-29T00:09:23.455Z,85.00
2023-03-29T00:14:27.026Z,85.10
2023-03-29T00:19:35.622Z,85.40
2023-03-29T00:24:38.975Z,85.40
2023-03-29T00:29:42.161Z,85.30
2023-03-29T00:34:50.884Z,85.50
2023-03-29T00:39:54.321Z,85.40
2023-03-29T00:45:04.084Z,85.50
2023-03-29T00:50:15.421Z,85.40
2023-03-29T00:55:22.881Z,85.50
2023-03-29T01:00:33.095Z,85.50
2023-03-29T01:05:40.530Z,85.70
2023-03-29T01:10:46.797Z,85.70
2023-03-29T01:15:50.217Z,85.60
2023-03-29T01:21:24.622Z,85.60
2023-03-29T01:26:36.006Z,85.30
2023-03-29T01:31:46.530Z,85.10
2023-03-29T01:36:54.799Z,85.10
2023-03-29T01:42:11.158Z,85.00
2023-03-29T01:47:23.207Z,85.10
2023-03-29T01:52:32.056Z,85.00
2023-03-29T01:57:38.256Z,85.00
2023-03-29T02:02:45.483Z,84.90
2023-03-29T02:07:50.547Z,85.30
2023-03-29T02:12:54.111Z,84.70
2023-03-29T02:17:58.824Z,84.60
2023-03-29T02:23:05.934Z,84.80
2023-03-29T02:28:09.521Z,85.00
2023-03-29T02:33:18.070Z,85.00
2023-03-29T02:38:25.600Z,85.00
2023-03-29T02:43:30.327Z,84.90
2023-03-29T02:48:38.038Z,84.80
2023-03-29T02:53:45.084Z,84.90
2023-03-29T02:58:48.491Z,84.90
2023-03-29T03:03:53.693Z,84.80
2023-03-29T03:08:57.696Z,84.70
2023-03-29T03:14:01.136Z,84.50
2023-03-29T03:19:07.976Z,84.40
2023-03-29T03:24:11.252Z,84.20
2023-03-29T03:29:15.566Z,84.10
2023-03-29T03:34:46.258Z,83.90
2023-03-29T03:39:49.837Z,83.70
2023-03-29T03:44:54.143Z,83.60
2023-03-29T03:50:18.793Z,83.50
2023-03-29T03:55:22.254Z,83.30
2023-03-29T04:00:42.152Z,83.20
2023-03-29T04:06:03.798Z,83.10
2023-03-29T04:11:22.198Z,82.80
2023-03-29T04:16:25.871Z,82.60
2023-03-29T04:21:33.778Z,82.60
2023-03-29T04:26:37.489Z,82.70
2023-03-29T04:31:50.057Z,83.00
2023-03-29T04:37:11.826Z,83.50
2023-03-29T04:42:16.573Z,84.10
2023-03-29T04:47:21.969Z,84.50
2023-03-29T04:52:34.227Z,84.90
2023-03-29T04:57:39.722Z,85.20
2023-03-29T05:02:57.910Z,85.90
2023-03-29T05:08:04.444Z,85.80
2023-03-29T05:13:15.643Z,86.00
2023-03-29T05:18:19.176Z,86.10
2023-03-29T05:23:24.493Z,86.30
2023-03-29T05:28:47.645Z,86.50
2023-03-29T05:33:52.129Z,86.40
2023-03-29T05:38:57.499Z,86.40
2023-03-29T05:44:01.618Z,86.10
2023-03-29T05:49:06.506Z,85.80
2023-03-29T05:54:27.590Z,85.80
2023-03-29T05:59:32.317Z,85.60
2023-03-29T06:04:36.644Z,85.60
2023-03-29T06:10:01.697Z,85.70
2023-03-29T06:15:05.845Z,86.10
2023-03-29T06:20:15.562Z,86.10
2023-03-29T06:25:23.251Z,85.90
2023-03-29T06:30:27.892Z,86.20
2023-03-29T06:35:32.995Z,86.10
2023-03-29T06:40:44.790Z,86.50
2023-03-29T06:45:48.417Z,86.70
2023-03-29T06:51:17.862Z,87.00
2023-03-29T06:56:23.902Z,87.00
2023-03-29T07:01:37.500Z,86.80
2023-03-29T07:07:01.925Z,87.00
2023-03-29T07:12:10.023Z,86.80
2023-03-29T07:17:13.354Z,86.80
2023-03-29T07:22:18.005Z,86.70
2023-03-29T07:27:28.869Z,86.90
2023-03-29T07:32:32.949Z,86.90
2023-03-29T07:37:57.356Z,86.80
2023-03-29T07:43:08.965Z,86.40
2023-03-29T07:48:13.168Z,86.10
2023-03-29T07:53:27.131Z,85.90
2023-03-29T07:58:34.196Z,86.10
2023-03-29T08:03:37.681Z,86.30
2023-03-29T08:08:42.785Z,86.30
2023-03-29T08:13:51.483Z,86.20
2023-03-29T08:19:18.267Z,85.90
2023-03-29T08:24:30.580Z,85.70
2023-03-29T08:29:42.214Z,85.20
2023-03-29T08:34:46.944Z,85.40
2023-03-29T08:40:05.608Z,85.10
2023-03-29T08:45:26.755Z,84.80
2023-03-29T08:50:37.842Z,84.10
2023-03-29T08:55:44.271Z,83.30
2023-03-29T09:01:12.519Z,82.50
2023-03-29T09:06:32.028Z,82.60
2023-03-29T09:12:02.200Z,81.90
2023-03-29T09:17:22.241Z,81.50
2023-03-29T09:22:33.563Z,81.30
2023-03-29T09:27:45.609Z,81.20
2023-03-29T09:33:01.914Z,81.00
2023-03-29T09:38:22.185Z,80.80
2023-03-29T09:43:32.867Z,80.30
2023-03-29T09:48:42.637Z,80.40
2023-03-29T09:53:47.183Z,79.70
2023-03-29T09:59:09.085Z,79.20
2023-03-29T10:04:15.437Z,78.70
2023-03-29T10:09:24.272Z,77.80
2023-03-29T10:14:37.138Z,76.60
2023-03-29T10:19:49.870Z,75.60
2023-03-29T10:24:54.957Z,74.80
2023-03-29T10:30:00.505Z,74.30
2023-03-29T10:35:10.824Z,73.60
2023-03-29T10:40:23.190Z,73.20
2023-03-29T10:45:29.167Z,73.00
2023-03-29T10:50:38.064Z,72.00
2023-03-29T10:55:50.802Z,71.10
2023-03-29T11:00:57.974Z,70.50
2023-03-29T11:06:07.846Z,69.50
2023-03-29T11:11:35.346Z,69.00
2023-03-29T11:16:47.763Z,68.50
2023-03-29T11:22:00.427Z,68.70
2023-03-29T11:27:16.022Z,68.20
2023-03-29T11:32:27.541Z,68.10
2023-03-29T11:37:39.261Z,68.30
2023-03-29T11:42:47.769Z,67.90
2023-03-29T11:47:52.967Z,67.70
2023-03-29T11:53:03.074Z,66.60
2023-03-29T11:58:11.543Z,65.60
2023-03-29T12:03:22.022Z,65.80
2023-03-29T12:08:30.681Z,65.40
2023-03-29T12:13:39.834Z,65.30
2023-03-29T12:18:46.208Z,65.20
2023-03-29T12:23:52.189Z,65.50
2023-03-29T12:29:12.309Z,65.70
2023-03-29T12:34:36.598Z,65.80
2023-03-29T12:40:13.026Z,65.80
2023-03-29T12:45:38.919Z,66.40
2023-03-29T12:50:48.338Z,66.60
2023-03-29T12:56:08.606Z,66.90
2023-03-29T13:01:24.392Z,66.80
2023-03-29T13:06:33.809Z,66.30
2023-03-29T13:11:41.399Z,65.60
2023-03-29T13:16:45.091Z,64.90
2023-03-29T13:22:00.737Z,64.40
2023-03-29T13:27:12.816Z,64.60
2023-03-29T13:32:32.489Z,64.20
2023-03-29T13:37:44.385Z,63.90
2023-03-29T13:42:59.547Z,64.00
2023-03-29T13:48:05.807Z,64.00
2023-03-29T13:53:16.558Z,64.10
2023-03-29T13:58:33.525Z,64.20
2023-03-29T14:03:44.769Z,64.20
2023-03-29T14:08:50.903Z,64.20
2023-03-29T14:13:57.128Z,64.30
2023-03-29T14:19:01.187Z,64.30
2023-03-29T14:24:05.005Z,63.90
2023-03-29T14:29:12.279Z,63.90
2023-03-29T14:34:18.428Z,63.40
2023-03-29T14:39:23.345Z,63.40
2023-03-29T14:44:31.360Z,63.40
2023-03-29T14:49:35.144Z,63.90
2023-03-29T14:54:39.018Z,64.10
2023-03-29T14:59:45.131Z,64.20
2023-03-29T15:04:57.974Z,64.30
2023-03-29T15:10:03.492Z,64.60
2023-03-29T15:15:12.545Z,64.80
2023-03-29T15:20:21.666Z,65.00
2023-03-29T15:25:28.699Z,65.50
2023-03-29T15:30:37.353Z,65.60
2023-03-29T15:35:41.319Z,65.70
2023-03-29T15:40:45.085Z,65.70
2023-03-29T15:45:49.948Z,65.90
2023-03-29T15:50:53.657Z,66.00
2023-03-29T15:56:02.544Z,66.20
2023-03-29T16:01:16.098Z,66.50
2023-03-29T16:06:22.454Z,67.30
2023-03-29T16:11:27.086Z,68.80
2023-03-29T16:16:31.892Z,70.20
2023-03-29T16:21:35.365Z,71.80
2023-03-29T16:26:39.168Z,73.80
2023-03-29T16:31:43.923Z,75.80
2023-03-29T16:36:48.031Z,77.40
2023-03-29T16:41:51.284Z,78.40
2023-03-29T16:46:57.868Z,79.40
2023-03-29T16:52:01.115Z,80.30
2023-03-29T16:57:04.365Z,81.00
2023-03-29T17:02:10.516Z,81.60
2023-03-29T17:07:13.764Z,82.20
2023-03-29T17:12:17.505Z,82.90
2023-03-29T17:17:22.178Z,83.60
2023-03-29T17:22:26.478Z,84.10
2023-03-29T17:27:29.687Z,84.60
2023-03-29T17:32:34.392Z,84.90
2023-03-29T17:37:38.109Z,85.30
2023-03-29T17:42:41.417Z,85.60
2023-03-29T17:47:46.340Z,86.20
2023-03-29T17:52:49.557Z,86.60
2023-03-29T17:57:52.846Z,87.10
2023-03-29T18:02:58.159Z,87.50
2023-03-29T18:08:01.586Z,87.70
2023-03-29T18:13:04.986Z,87.80
2023-03-29T18:18:10.251Z,87.90
2023-03-29T18:23:13.623Z,87.80
2023-03-29T18:28:18.243Z,87.70
2023-03-29T18:33:23.242Z,87.80
2023-03-29T18:38:27.061Z,88.00
2023-03-29T18:43:30.890Z,88.00
2023-03-29T18:48:39.041Z,87.90
2023-03-29T18:53:44.299Z,87.90
2023-03-29T18:58:47.560Z,88.00
2023-03-29T19:03:52.320Z,88.20
2023-03-29T19:08:58.248Z,88.50
2023-03-29T19:14:01.298Z,88.60
2023-03-29T19:19:07.186Z,88.50
2023-03-29T19:24:10.950Z,88.20
2023-03-29T19:29:15.323Z,88.20
2023-03-29T19:34:23.233Z,88.00
2023-03-29T19:39:29.684Z,87.90
2023-03-29T19:44:34.053Z,88.00
2023-03-29T19:49:39.453Z,87.90
2023-03-29T19:54:42.726Z,87.90
2023-03-29T19:59:46.835Z,87.90
2023-03-29T20:04:52.920Z,87.80
2023-03-29T20:09:57.385Z,87.80
2023-03-29T20:15:00.854Z,87.90
2023-03-29T20:20:09.479Z,88.10
2023-03-29T20:25:13.300Z,88.30
2023-03-29T20:30:16.754Z,88.40
2023-03-29T20:35:21.402Z,88.60
2023-03-29T20:40:24.789Z,88.80
2023-03-29T20:45:29.612Z,89.00
2023-03-29T20:50:34.833Z,89.10
2023-03-29T20:55:39.151Z,89.20
2023-03-29T21:00:42.339Z,89.50
2023-03-29T21:05:46.943Z,90.00
2023-03-29T21:10:52.446Z,89.90
2023-03-29T21:15:55.976Z,90.10
2023-03-29T21:21:00.633Z,90.20
2023-03-29T21:26:04.424Z,90.20
2023-03-29T21:31:08.621Z,90.30
2023-03-29T21:36:13.480Z,90.40
2023-03-29T21:41:17.032Z,90.30
2023-03-29T21:46:20.571Z,90.30
2023-03-29T21:51:25.283Z,90.30
2023-03-29T21:56:29.187Z,90.30
2023-03-29T22:01:32.535Z,90.30
2023-03-29T22:06:37.177Z,90.20
2023-03-29T22:11:40.921Z,90.20
2023-03-29T22:16:45.608Z,90.20
2023-03-29T22:21:51.320Z,90.20
2023-03-29T22:26:54.893Z,90.10
2023-03-29T22:31:58.532Z,90.20
2023-03-29T22:37:03.656Z,90.40
2023-03-29T22:42:07.422Z,90.60
2023-03-29T22:47:11.155Z,90.80
2023-03-29T22:52:16.246Z,90.90
2023-03-29T22:57:20.167Z,91.00
2023-03-29T23:02:24.524Z,91.10
2023-03-29T23:07:29.254Z,91.20
2023-03-29T23:12:32.862Z,91.20
2023-03-29T23:17:37.147Z,91.40
2023-03-29T23:22:41.939Z,91.70
2023-03-29T23:27:45.142Z,92.10
2023-03-29T23:32:48.419Z,92.40
2023-03-29T23:37:53.091Z,92.60
2023-03-29T23:42:59.460Z,92.60
2023-03-29T23:48:03.697Z,92.70
2023-03-29T23:53:09.265Z,92.70
2023-03-29T23:58:12.587Z,92.80
